Time;durP1;ratioP1;P1;durP2;ratioP2;P2;SDS_P1;SDS_P2;PMS_P1;PMS_P2;Temp;Humidity;BMP_temperature;BMP_pressure;BME280_temperature;BME280_humidity;BME280_pressure;Samples;Min_cycle;Max_cycle;Signal;HPM_P1;HPM_P2
2022/04/01 00:00:08;;;;;;;1.40;1.30;;;20.80;50.40;;;;;;4998585;28;20486;-64
2022/04/01 00:02:34;;;;;;;1.33;1.17;;;;;;;;;;5000498;28;20615;-64
2022/04/01 00:05:00;;;;;;;1.50;1.40;;;;;;;;;;5001013;28;20521;-64
2022/04/01 00:07:25;;;;;;;1.77;1.27;;;20.80;73.30;;;;;;4999144;28;20436;-64
2022/04/01 00:09:51;;;;;;;1.30;1.30;;;20.70;71.20;;;;;;4996692;28;20574;-64
2022/04/01 00:12:17;;;;;;;1.37;1.37;;;;;;;;;;4994600;28;20182;-64
2022/04/01 00:14:43;;;;;;;0.80;0.80;;;20.90;69.60;;;;;;5000030;28;20212;-65
2022/04/01 00:17:09;;;;;;;1.90;1.43;;;;;;;;;;5002310;28;20455;-63
2022/04/01 00:19:35;;;;;;;1.90;1.80;;;;;;;;;;5002053;28;20187;-64
2022/04/01 00:22:01;;;;;;;1.20;1.20;;;;;;;;;;5001869;28;20856;-63
2022/04/01 00:24:26;;;;;;;1.60;1.50;;;20.80;69.20;;;;;;5001404;28;20474;-64
2022/04/01 00:26:52;;;;;;;1.30;1.20;;;;;;;;;;5001002;28;20597;-64
2022/04/01 00:29:20;;;;;;;1.10;1.10;;;;;;;;;;5002916;28;20643;-64
2022/04/01 00:31:58;;;;;;;1.80;1.70;;;20.90;50.30;;;;;;4999953;28;20892;-64
2022/04/01 00:34:24;;;;;;;1.17;1.17;;;;;;;;;;4992810;28;20452;-64
2022/04/01 00:36:51;;;;;;;1.40;1.40;;;;;;;;;;4992378;28;20904;-64
2022/04/01 00:39:18;;;;;;;1.20;1.20;;;20.90;62.30;;;;;;4993000;28;20520;-63
2022/04/01 00:41:45;;;;;;;1.40;1.40;;;20.50;63.40;;;;;;5003669;28;20511;-65
2022/04/01 00:44:32;;;;;;;1.40;1.40;;;20.70;48.00;;;;;;5005357;28;20431;-65
2022/04/01 00:47:03;;;;;;;1.00;1.00;;;20.60;55.50;;;;;;5005577;28;20955;-64
2022/04/01 00:49:31;;;;;;;1.30;1.30;;;20.70;49.70;;;;;;5005112;28;20466;-64
2022/04/01 00:51:59;;;;;;;1.30;1.30;;;20.80;50.30;;;;;;5002523;28;20437;-64
2022/04/01 00:54:25;;;;;;;1.50;1.40;;;20.80;48.90;;;;;;5001801;28;20530;-65
2022/04/01 00:56:51;;;;;;;1.03;1.00;;;20.70;49.20;;;;;;5002313;28;20529;-64
2022/04/01 00:59:17;;;;;;;1.43;1.43;;;;;;;;;;5001376;28;20228;-63
2022/04/01 01:01:43;;;;;;;1.20;1.20;;;;;;;;;;5002504;28;20515;-65
2022/04/01 01:04:13;;;;;;;1.10;1.10;;;20.70;50.50;;;;;;4998230;28;20428;-65
2022/04/01 01:06:42;;;;;;;1.30;1.30;;;20.80;50.10;;;;;;4995596;28;20455;-64
2022/04/01 01:09:09;;;;;;;2.70;1.70;;;20.80;50.00;;;;;;5000228;28;20416;-64
2022/04/01 01:11:38;;;;;;;1.40;1.30;;;20.80;72.70;;;;;;5003192;28;20432;-64
2022/04/01 01:14:05;;;;;;;0.80;0.80;;;21.00;50.20;;;;;;5010760;28;20472;-65
2022/04/01 01:16:31;;;;;;;1.80;1.70;;;20.90;63.50;;;;;;5002153;28;20425;-64
2022/04/01 01:19:06;;;;;;;1.53;1.50;;;20.80;47.80;;;;;;5003621;28;20897;-64
2022/04/01 01:21:32;;;;;;;0.90;0.90;;;20.70;58.40;;;;;;5004325;28;20942;-64
2022/04/01 01:24:05;;;;;;;1.37;1.33;;;20.80;48.00;;;;;;5000928;28;20461;-64
2022/04/01 01:26:32;;;;;;;1.27;1.17;;;20.80;50.10;;;;;;5003915;28;20560;-64
2022/04/01 01:28:59;;;;;;;1.53;1.43;;;20.80;49.50;;;;;;5003211;28;20424;-64
2022/04/01 01:31:26;;;;;;;1.73;1.20;;;20.70;53.50;;;;;;4995813;28;20507;-64
2022/04/01 01:33:54;;;;;;;1.80;1.53;;;20.20;49.70;;;;;;4999433;28;20530;-63
2022/04/01 01:36:21;;;;;;;1.03;1.03;;;22.20;50.60;;;;;;5002566;28;20942;-64
2022/04/01 01:38:47;;;;;;;1.20;1.20;;;;;;;;;;5001652;28;20436;-65
2022/04/01 01:41:14;;;;;;;2.10;1.57;;;20.80;62.30;;;;;;5002861;28;20440;-64
2022/04/01 01:43:41;;;;;;;1.30;1.30;;;20.80;72.90;;;;;;5002243;28;20503;-64
2022/04/01 01:46:07;;;;;;;1.57;1.47;;;;;;;;;;5007608;28;20518;-64
2022/04/01 01:48:33;;;;;;;1.10;1.10;;;20.90;64.80;;;;;;5010979;28;20959;-65
2022/04/01 01:56:27;;;;;;;1.80;1.63;;;;;;;;;;5010801;28;20528;-64
2022/04/01 01:58:54;;;;;;;1.57;1.50;;;;;;;;;;5011145;28;20900;-64
2022/04/01 02:01:20;;;;;;;1.13;1.13;;;;;;;;;;5010793;28;20491;-64
2022/04/01 02:03:46;;;;;;;1.10;1.10;;;;;;;;;;5011087;28;20412;-64
2022/04/01 02:06:13;;;;;;;1.27;1.27;;;;;;;;;;5010744;28;20424;-64
2022/04/01 02:08:40;;;;;;;1.40;1.40;;;20.70;74.50;;;;;;5011056;28;20764;-64
2022/04/01 02:11:07;;;;;;;1.43;1.33;;;20.80;58.10;;;;;;5010865;28;20420;-64
2022/04/01 02:13:33;;;;;;;1.50;1.40;;;;;;;;;;5010669;28;20483;-64
2022/04/01 02:15:59;;;;;;;0.97;0.97;;;20.80;57.40;;;;;;5010823;28;20464;-64
2022/04/01 02:18:25;;;;;;;1.20;1.20;;;20.80;69.70;;;;;;5010987;28;20446;-64
2022/04/01 02:20:51;;;;;;;1.70;1.27;;;;;;;;;;5010741;28;20912;-64
2022/04/01 02:23:17;;;;;;;1.53;1.43;;;;;;;;;;5010738;28;20652;-63
2022/04/01 02:25:43;;;;;;;1.20;1.20;;;20.80;50.10;;;;;;5010225;28;20447;-64
2022/04/01 02:28:10;;;;;;;1.00;1.00;;;20.60;51.10;;;;;;5010670;28;20593;-64
2022/04/01 02:30:36;;;;;;;1.53;1.20;;;;;;;;;;5010671;28;20979;-64
2022/04/01 02:33:03;;;;;;;1.17;1.10;;;;;;;;;;5009028;28;20795;-64
2022/04/01 02:35:29;;;;;;;1.50;1.40;;;20.50;69.40;;;;;;5010685;28;20559;-64
2022/04/01 02:37:55;;;;;;;1.13;1.03;;;;;;;;;;5010258;28;20460;-64
2022/04/01 02:40:22;;;;;;;1.30;1.30;;;20.90;64.40;;;;;;5010414;28;20502;-64
2022/04/01 02:42:50;;;;;;;1.00;1.00;;;;;;;;;;5010549;28;20847;-64
2022/04/01 02:45:16;;;;;;;0.80;0.80;;;;;;;;;;5008691;28;20420;-64
2022/04/01 02:47:42;;;;;;;1.00;1.00;;;;;;;;;;5010043;28;20959;-65
2022/04/01 02:50:08;;;;;;;1.67;1.57;;;20.50;68.30;;;;;;5010109;28;20440;-64
2022/04/01 02:52:34;;;;;;;1.03;1.03;;;;;;;;;;5010360;28;20502;-64
2022/04/01 02:55:00;;;;;;;0.90;0.70;;;;;;;;;;5009889;28;20920;-64
2022/04/01 02:57:26;;;;;;;1.30;1.20;;;;;;;;;;5010026;28;20432;-65
2022/04/01 02:59:52;;;;;;;1.30;1.20;;;;;;;;;;5010367;28;20428;-64
2022/04/01 03:02:18;;;;;;;1.57;1.40;;;;;;;;;;5010091;28;20795;-64
2022/04/01 03:04:45;;;;;;;1.03;1.03;;;;;;;;;;5009944;28;20514;-64
2022/04/01 03:07:10;;;;;;;1.47;1.47;;;20.80;73.70;;;;;;5009651;28;20471;-64
2022/04/01 03:09:36;;;;;;;1.20;1.10;;;20.90;69.50;;;;;;5010093;28;20901;-64
2022/04/01 03:12:02;;;;;;;1.10;1.00;;;;;;;;;;5009934;28;20323;-64
2022/04/01 03:14:28;;;;;;;1.10;1.00;;;;;;;;;;5009685;28;20209;-64
2022/04/01 03:16:54;;;;;;;1.30;1.30;;;;;;;;;;5009573;28;20448;-63
2022/04/01 03:19:20;;;;;;;1.20;1.10;;;;;;;;;;5009753;28;20467;-64
2022/04/01 03:21:46;;;;;;;1.30;1.20;;;;;;;;;;5009573;28;20420;-64
2022/04/01 03:24:12;;;;;;;1.37;1.27;;;;;;;;;;5009078;28;20424;-64
2022/04/01 03:26:38;;;;;;;1.27;1.17;;;20.90;72.30;;;;;;5009154;28;20447;-65
2022/04/01 03:29:08;;;;;;;1.10;1.10;;;20.90;57.00;;;;;;5009749;28;20420;-64
2022/04/01 03:31:34;;;;;;;1.53;1.43;;;;;;;;;;5009759;28;20889;-64
2022/04/01 03:34:01;;;;;;;1.17;1.17;;;20.60;57.60;;;;;;5009616;28;20470;-64
2022/04/01 03:36:27;;;;;;;1.00;1.00;;;;;;;;;;5005750;28;20518;-63
2022/04/01 03:38:53;;;;;;;1.10;1.10;;;;;;;;;;5009517;28;20905;-64
2022/04/01 03:41:19;;;;;;;1.40;1.30;;;20.60;71.00;;;;;;5009816;28;20482;-64
2022/04/01 03:43:45;;;;;;;3.00;2.80;;;;;;;;;;5009522;28;20424;-64
2022/04/01 03:46:13;;;;;;;1.43;1.43;;;20.80;50.00;;;;;;5009585;28;20769;-65
2022/04/01 03:48:51;;;;;;;1.63;1.33;;;20.80;47.90;;;;;;5009848;28;20458;-64
2022/04/01 03:51:24;;;;;;;0.93;0.93;;;20.70;70.90;;;;;;5003903;28;20424;-64
2022/04/01 03:53:57;;;;;;;1.10;1.10;;;20.50;54.90;;;;;;5009882;28;20991;-65
2022/04/01 03:56:31;;;;;;;1.00;0.90;;;20.20;50.00;;;;;;5009741;28;20451;-63
2022/04/01 03:59:17;;;;;;;0.90;0.90;;;20.70;47.70;;;;;;5009848;28;20840;-63
2022/04/01 04:01:43;;;;;;;0.83;0.83;;;20.70;48.60;;;;;;5009969;28;20416;-64
2022/04/01 04:04:09;;;;;;;0.80;0.80;;;21.00;54.70;;;;;;5009285;28;20467;-65
2022/04/01 04:06:37;;;;;;;1.13;1.13;;;;;;;;;;5009769;28;20447;-64
2022/04/01 04:09:03;;;;;;;1.07;1.07;;;20.50;74.10;;;;;;5009668;28;20408;-64
2022/04/01 04:11:32;;;;;;;1.33;1.17;;;20.70;49.90;;;;;;5009104;28;20479;-64
2022/04/01 04:13:59;;;;;;;1.30;1.30;;;20.80;50.00;;;;;;5008651;28;20477;-63
2022/04/01 04:16:36;;;;;;;1.13;1.13;;;21.80;48.40;;;;;;5000898;28;20443;-64
2022/04/01 04:19:08;;;;;;;1.10;1.10;;;20.70;50.10;;;;;;5008481;28;20482;-64
2022/04/01 04:21:55;;;;;;;1.50;1.40;;;20.60;50.40;;;;;;5008145;28;20806;-64
2022/04/01 04:24:29;;;;;;;1.20;1.10;;;20.80;50.20;;;;;;5008532;28;20427;-64
2022/04/01 04:27:11;;;;;;;1.20;1.20;;;20.60;50.10;;;;;;5008188;28;20562;-65
2022/04/01 04:29:51;;;;;;;1.57;1.57;;;21.10;54.50;;;;;;5008066;28;20920;-64
2022/04/01 04:32:32;;;;;;;2.47;2.30;;;20.70;47.20;;;;;;5008831;28;20428;-65
2022/04/01 04:35:02;;;;;;;3.10;2.90;;;21.10;49.70;;;;;;5008775;28;20665;-65
2022/04/01 04:37:29;;;;;;;3.07;2.93;;;20.60;49.20;;;;;;5008259;28;20514;-64
2022/04/01 04:39:55;;;;;;;4.13;3.93;;;20.70;48.70;;;;;;5008853;28;20428;-65
2022/04/01 04:42:22;;;;;;;3.40;3.20;;;;;;;;;;5003285;28;20900;-65
2022/04/01 04:44:49;;;;;;;2.60;2.50;;;20.60;48.20;;;;;;5000241;28;20914;-65
2022/04/01 04:47:15;;;;;;;3.07;2.97;;;20.50;47.90;;;;;;5007937;28;20523;-64
2022/04/01 04:49:47;;;;;;;3.47;3.27;;;20.60;44.40;;;;;;5006577;28;20885;-65
2022/04/01 04:52:14;;;;;;;2.40;2.30;;;20.50;47.10;;;;;;5006544;28;20803;-64
2022/04/01 04:54:40;;;;;;;2.40;2.30;;;20.50;57.10;;;;;;5013923;28;20459;-65
2022/04/01 04:57:07;;;;;;;2.83;2.63;;;20.50;47.50;;;;;;5010556;28;20440;-65
2022/04/01 04:59:35;;;;;;;2.10;2.00;;;20.80;56.60;;;;;;5014722;28;20556;-65
2022/04/01 05:02:05;;;;;;;2.47;2.37;;;20.60;44.90;;;;;;5011300;28;20428;-64
2022/04/01 05:04:55;;;;;;;2.00;1.90;;;20.60;57.70;;;;;;5015828;28;20509;-64
2022/04/01 05:07:55;;;;;;;2.40;2.30;;;22.00;45.50;;;;;;5008894;28;20466;-64
2022/04/01 05:10:38;;;;;;;2.20;2.20;;;20.50;48.30;;;;;;4993328;28;20428;-64
2022/04/01 05:13:42;;;;;;;2.27;2.17;;;19.50;48.00;;;;;;5007999;28;20427;-64
2022/04/01 05:16:25;;;;;;;2.60;2.40;;;20.60;48.30;;;;;;4970344;28;20519;-64
2022/04/01 05:19:01;;;;;;;1.83;1.73;;;20.30;48.10;;;;;;5012099;28;20893;-64
2022/04/01 05:21:37;;;;;;;2.03;1.93;;;20.50;48.50;;;;;;5011740;28;20488;-65
2022/04/01 05:24:06;;;;;;;2.10;2.00;;;20.40;51.50;;;;;;5007997;28;20471;-64
2022/04/01 05:26:41;;;;;;;1.83;1.83;;;20.70;59.40;;;;;;5020141;28;20451;-65
2022/04/01 05:29:15;;;;;;;2.00;1.80;;;21.60;45.80;;;;;;5017438;28;20518;-68
2022/04/01 05:31:52;;;;;;;2.03;1.93;;;20.70;64.30;;;;;;5007399;28;20732;-66
2022/04/01 05:34:36;;;;;;;1.60;1.60;;;20.10;50.70;;;;;;5015424;28;20908;-63
2022/04/01 05:37:02;;;;;;;2.20;2.10;;;;;;;;;;5020010;28;20444;-63
2022/04/01 05:39:30;;;;;;;1.90;1.90;;;20.70;53.20;;;;;;5011950;28;20494;-64
2022/04/01 05:41:56;;;;;;;1.97;1.87;;;;;;;;;;5011661;28;20416;-66
2022/04/01 05:44:25;;;;;;;2.20;2.07;;;20.70;48.90;;;;;;5011452;28;20857;-65
2022/04/01 05:46:51;;;;;;;1.83;1.73;;;20.80;60.40;;;;;;5015712;28;20737;-65
2022/04/01 05:49:18;;;;;;;1.87;1.87;;;20.70;48.90;;;;;;5010961;28;20455;-65
2022/04/01 05:51:46;;;;;;;1.57;1.57;;;20.70;51.80;;;;;;5011238;28;20489;-66
2022/04/01 05:54:15;;;;;;;1.50;1.50;;;20.70;49.00;;;;;;5011076;28;20539;-66
2022/04/01 05:56:44;;;;;;;1.87;1.77;;;20.70;48.80;;;;;;5010896;28;20574;-64
2022/04/01 05:59:12;;;;;;;2.23;2.13;;;;;;;;;;5011266;28;20424;-65
2022/04/01 06:02:12;;;;;;;1.50;1.50;;;20.60;48.60;;;;;;5010935;28;20447;-65
2022/04/01 06:04:50;;;;;;;1.67;1.67;;;20.50;45.90;;;;;;5011568;28;20428;-65
2022/04/01 06:07:34;;;;;;;1.50;1.50;;;20.70;73.10;;;;;;5007227;28;20475;-65
2022/04/01 06:10:29;;;;;;;1.30;1.30;;;22.70;47.10;;;;;;5008715;28;20420;-65
2022/04/01 06:12:57;;;;;;;1.30;1.30;;;20.80;46.10;;;;;;4990898;28;20834;-66
2022/04/01 06:15:53;;;;;;;1.47;1.47;;;20.80;46.10;;;;;;5008292;28;20472;-65
2022/04/01 06:18:44;;;;;;;1.37;1.37;;;21.30;46.50;;;;;;4994574;28;20460;-65
2022/04/01 06:21:15;;;;;;;1.30;1.30;;;20.80;49.30;;;;;;5010459;28;20506;-65
2022/04/01 06:23:50;;;;;;;1.30;1.30;;;20.80;46.50;;;;;;5010994;28;20819;-65
2022/04/01 06:26:16;;;;;;;1.20;1.20;;;20.60;56.60;;;;;;5005599;28;20498;-65
2022/04/01 06:28:52;;;;;;;1.83;1.80;;;20.80;49.10;;;;;;5001976;28;20890;-64
2022/04/01 06:31:23;;;;;;;1.70;1.60;;;20.80;48.90;;;;;;5008019;28;20641;-64
2022/04/01 06:34:26;;;;;;;1.40;1.40;;;20.80;46.20;;;;;;5010585;28;20428;-65
2022/04/01 06:36:59;;;;;;;1.27;1.27;;;20.80;48.90;;;;;;5009067;28;20456;-65
2022/04/01 06:40:05;;;;;;;1.30;1.30;;;21.30;49.60;;;;;;5010389;28;20497;-65
2022/04/01 06:42:33;;;;;;;1.17;1.17;;;20.70;49.30;;;;;;5009424;28;20420;-65
2022/04/01 06:44:59;;;;;;;1.67;1.63;;;20.80;49.20;;;;;;5007664;28;20427;-63
2022/04/01 06:47:25;;;;;;;1.77;1.67;;;;;;;;;;5010365;28;20436;-65
2022/04/01 06:49:51;;;;;;;1.53;1.50;;;;;;;;;;5012886;28;20803;-66
2022/04/01 06:52:17;;;;;;;1.80;1.70;;;21.00;73.70;;;;;;5012624;28;20416;-64
2022/04/01 06:54:43;;;;;;;1.50;1.40;;;20.80;49.50;;;;;;5009919;28;20455;-64
2022/04/01 06:57:09;;;;;;;1.50;1.50;;;;;;;;;;5010388;28;20216;-63
2022/04/01 06:59:35;;;;;;;1.90;1.80;;;;;;;;;;5009576;28;20864;-62
2022/04/01 07:02:01;;;;;;;1.47;1.37;;;20.70;61.00;;;;;;5002656;28;20420;-64
2022/04/01 07:04:27;;;;;;;1.87;1.77;;;;;;;;;;5009919;28;20511;-64
2022/04/01 07:06:55;;;;;;;3.33;1.60;;;21.00;50.60;;;;;;5007976;28;20201;-65
2022/04/01 07:09:22;;;;;;;1.97;1.77;;;;;;;;;;5009709;28;20432;-64
2022/04/01 07:11:48;;;;;;;1.70;1.60;;;;;;;;;;5009460;28;20433;-65
2022/04/01 07:14:14;;;;;;;1.33;1.33;;;;;;;;;;5006529;28;20935;-64
2022/04/01 07:16:40;;;;;;;1.80;1.70;;;;;;;;;;5008915;28;20466;-65
2022/04/01 07:19:06;;;;;;;1.30;1.30;;;;;;;;;;5010026;28;20456;-64
2022/04/01 07:21:32;;;;;;;1.20;1.20;;;21.20;61.10;;;;;;5009063;28;20500;-65
2022/04/01 07:24:00;;;;;;;1.33;1.33;;;;;;;;;;5009773;28;20437;-65
2022/04/01 07:26:26;;;;;;;1.60;1.50;;;21.40;74.10;;;;;;5009417;28;20423;-65
2022/04/01 07:28:52;;;;;;;1.87;1.43;;;21.30;74.20;;;;;;4999460;28;20436;-64
2022/04/01 07:34:03;;;;;;;1.57;1.57;;;;;;;;;;4999882;28;20839;-67
2022/04/01 07:36:28;;;;;;;1.83;1.73;;;21.40;72.70;;;;;;5009499;28;20444;-65
2022/04/01 07:38:54;;;;;;;1.77;1.70;;;;;;;;;;5009004;28;20897;-64
2022/04/01 07:41:20;;;;;;;1.57;1.50;;;;;;;;;;5009261;28;20193;-65
2022/04/01 07:43:46;;;;;;;1.30;1.30;;;;;;;;;;5009278;28;20511;-65
2022/04/01 07:46:12;;;;;;;1.50;1.40;;;;;;;;;;5007764;28;20419;-64
2022/04/01 07:48:38;;;;;;;1.30;1.20;;;;;;;;;;5008532;28;20916;-63
2022/04/01 07:51:04;;;;;;;1.80;1.50;;;21.30;70.70;;;;;;5008126;28;20478;-62
2022/04/01 07:53:30;;;;;;;1.20;1.20;;;;;;;;;;5008949;28;20483;-64
2022/04/01 07:55:56;;;;;;;3.80;1.57;;;;;;;;;;5008628;28;20299;-63
2022/04/01 07:58:22;;;;;;;2.30;1.30;;;;;;;;;;5009112;28;20893;-65
2022/04/01 08:00:48;;;;;;;1.60;1.50;;;;;;;;;;5008941;28;20428;-68
2022/04/01 08:03:14;;;;;;;1.93;1.30;;;;;;;;;;5008974;28;20510;-68
2022/04/01 08:05:40;;;;;;;1.50;1.50;;;21.20;68.00;;;;;;5008881;28;20428;-66
2022/04/01 08:08:06;;;;;;;1.43;1.37;;;;;;;;;;5009239;28;20448;-66
2022/04/01 08:10:33;;;;;;;2.40;1.40;;;;;;;;;;5009056;28;20590;-67
2022/04/01 08:12:59;;;;;;;1.47;1.37;;;;;;;;;;5008806;28;20493;-66
2022/04/01 08:15:25;;;;;;;1.23;1.23;;;;;;;;;;5009106;28;20972;-67
2022/04/01 08:17:55;;;;;;;1.40;1.30;;;;;;;;;;5004663;28;20514;-64
2022/04/01 08:20:21;;;;;;;1.10;1.10;;;;;;;;;;5007861;28;20432;-66
2022/04/01 08:22:47;;;;;;;3.60;1.37;;;;;;;;;;5022092;28;20418;-64
2022/04/01 08:25:13;;;;;;;1.90;1.60;;;;;;;;;;5011891;28;20427;-62
2022/04/01 08:27:39;;;;;;;1.13;1.10;;;21.50;72.80;;;;;;5016209;28;20447;-64
2022/04/01 08:30:06;;;;;;;1.30;1.20;;;21.40;69.60;;;;;;5013420;28;20486;-65
2022/04/01 08:32:34;;;;;;;1.23;1.23;;;;;;;;;;5022896;28;20250;-63
2022/04/01 08:35:00;;;;;;;1.27;1.27;;;;;;;;;;5019405;28;20463;-65
2022/04/01 08:37:26;;;;;;;1.10;1.10;;;;;;;;;;5024755;28;20481;-63
2022/04/01 08:39:53;;;;;;;1.50;1.40;;;;;;;;;;5022560;28;20415;-64
2022/04/01 08:42:19;;;;;;;1.17;1.17;;;;;;;;;;5009702;28;20424;-65
2022/04/01 08:44:47;;;;;;;3.13;1.60;;;21.60;52.00;;;;;;5007526;28;20448;-64
2022/04/01 08:47:13;;;;;;;3.33;1.10;;;21.30;58.00;;;;;;5008044;28;20980;-65
2022/04/01 08:49:39;;;;;;;1.10;1.10;;;;;;;;;;5016748;28;20443;-65
2022/04/01 08:52:05;;;;;;;1.43;1.33;;;22.10;54.10;;;;;;5024930;28;20226;-65
2022/04/01 08:54:32;;;;;;;0.90;0.90;;;21.20;69.50;;;;;;5012326;28;20463;-64
2022/04/01 08:56:58;;;;;;;1.37;1.27;;;;;;;;;;5012315;28;20478;-64
2022/04/01 08:59:28;;;;;;;1.47;1.20;;;21.30;47.40;;;;;;5017532;28;20524;-63
2022/04/01 09:02:05;;;;;;;1.53;1.43;;;21.30;49.50;;;;;;5026306;28;20442;-63
2022/04/01 09:04:31;;;;;;;1.20;1.20;;;20.90;70.90;;;;;;5016144;28;20423;-64
2022/04/01 09:07:12;;;;;;;1.37;1.37;;;21.40;49.80;;;;;;5012674;28;20432;-63
2022/04/01 09:09:38;;;;;;;1.30;1.30;;;;;;;;;;5012787;28;20414;-64
2022/04/01 09:12:08;;;;;;;1.90;1.77;;;21.40;47.70;;;;;;5012449;28;20408;-63
2022/04/01 09:14:35;;;;;;;2.30;1.30;;;21.50;51.90;;;;;;5012444;28;20456;-64
2022/04/01 09:17:01;;;;;;;1.53;1.43;;;;;;;;;;5012496;28;20439;-63
2022/04/01 09:19:35;;;;;;;1.37;1.37;;;21.40;53.20;;;;;;5019387;28;20421;-64
2022/04/01 09:22:21;;;;;;;1.57;1.47;;;21.40;47.90;;;;;;5016672;28;20933;-63
2022/04/01 09:25:18;;;;;;;1.33;1.20;;;21.50;47.70;;;;;;5012722;28;20533;-64
2022/04/01 09:27:52;;;;;;;1.47;1.37;;;21.60;57.50;;;;;;4993226;28;20567;-64
2022/04/01 09:30:38;;;;;;;1.50;1.40;;;21.50;49.50;;;;;;5012484;28;20453;-62
2022/04/01 09:33:05;;;;;;;2.57;1.43;;;;;;;;;;5011977;28;20428;-63
2022/04/01 09:35:33;;;;;;;1.30;1.30;;;21.50;49.90;;;;;;5011734;28;21018;-64
2022/04/01 09:38:09;;;;;;;4.40;2.03;;;21.50;69.20;;;;;;5012261;28;20432;-64
2022/04/01 09:40:39;;;;;;;1.30;1.20;;;;;;;;;;5013413;28;20442;-62
2022/04/01 09:43:06;;;;;;;1.50;1.50;;;;;;;;;;5009377;28;20404;-63
2022/04/01 09:45:35;;;;;;;3.03;1.50;;;21.50;57.90;;;;;;5011645;28;20529;-62
2022/04/01 09:48:10;;;;;;;1.90;1.30;;;21.70;69.90;;;;;;5011997;28;20862;-66
2022/04/01 09:50:41;;;;;;;1.27;1.27;;;21.80;49.60;;;;;;5012067;28;20487;-63
2022/04/01 09:53:08;;;;;;;1.33;1.33;;;21.70;58.30;;;;;;4996040;28;20421;-64
2022/04/01 09:55:36;;;;;;;1.77;1.67;;;21.70;49.40;;;;;;4996102;28;20503;-64
2022/04/01 09:58:03;;;;;;;1.30;1.20;;;21.80;72.10;;;;;;5011749;28;20521;-64
2022/04/01 10:00:29;;;;;;;1.23;1.23;;;;;;;;;;5011141;28;20467;-64
2022/04/01 10:02:55;;;;;;;1.30;1.30;;;;;;;;;;5010022;28;20460;-65
2022/04/01 10:05:21;;;;;;;1.57;1.47;;;;;;;;;;5011469;28;20431;-65
2022/04/01 10:07:47;;;;;;;1.20;1.20;;;21.80;57.70;;;;;;5011199;28;20428;-64
2022/04/01 10:10:13;;;;;;;1.07;1.07;;;;;;;;;;5011092;28;20427;-63
2022/04/01 10:12:45;;;;;;;1.10;1.10;;;21.60;48.90;;;;;;5011102;28;20409;-64
2022/04/01 10:15:12;;;;;;;1.00;1.00;;;21.60;47.90;;;;;;5011511;28;20464;-64
2022/04/01 10:17:39;;;;;;;1.17;1.07;;;21.50;67.70;;;;;;5011562;28;20432;-64
2022/04/01 10:20:06;;;;;;;1.20;1.20;;;21.10;48.50;;;;;;5011280;28;20550;-65
2022/04/01 10:22:32;;;;;;;1.00;1.00;;;;;;;;;;5010921;28;20420;-65
2022/04/01 10:24:58;;;;;;;0.97;0.97;;;;;;;;;;5010961;28;20416;-64
2022/04/01 10:27:37;;;;;;;1.43;1.40;;;21.30;65.40;;;;;;5010113;28;20941;-63
2022/04/01 10:30:04;;;;;;;1.53;0.93;;;21.50;50.00;;;;;;5010644;28;20188;-62
2022/04/01 10:32:35;;;;;;;1.00;1.00;;;21.50;48.70;;;;;;5009074;28;20431;-63
2022/04/01 10:35:03;;;;;;;1.27;1.27;;;21.40;48.60;;;;;;5010041;28;20581;-63
2022/04/01 10:37:32;;;;;;;1.43;1.30;;;21.50;50.60;;;;;;5010747;28;20439;-61
2022/04/01 10:40:16;;;;;;;1.00;1.00;;;21.40;46.90;;;;;;5020989;28;20427;-65
2022/04/01 10:42:42;;;;;;;0.90;0.90;;;21.50;48.40;;;;;;5029633;28;20925;-64
2022/04/01 10:45:28;;;;;;;1.10;1.10;;;22.60;49.40;;;;;;5020545;28;20420;-62
2022/04/01 10:53:50;;;;;;;1.30;1.30;;;21.70;62.10;;;;;;5019841;28;20462;-64
2022/04/01 10:56:25;;;;;;;1.27;1.17;;;21.50;50.20;;;;;;5020170;28;20472;-62
2022/04/01 10:59:16;;;;;;;1.50;1.40;;;21.50;47.00;;;;;;5010398;28;20211;-64
2022/04/01 11:01:43;;;;;;;4.50;1.40;;;;;;;;;;5009473;28;20503;-64
2022/04/01 11:04:12;;;;;;;1.37;1.20;;;21.60;47.00;;;;;;5009858;28;20428;-65
2022/04/01 11:07:11;;;;;;;0.90;0.90;;;21.60;47.00;;;;;;5009474;28;20518;-65
2022/04/01 11:09:51;;;;;;;1.00;1.00;;;21.60;47.00;;;;;;5009344;28;20823;-66
2022/04/01 11:17:38;;;;;;;1.17;1.17;;;21.60;47.00;;;;;;5004150;28;20228;-63
2022/04/01 11:20:04;;;;;;;1.53;1.30;;;;;;;;;;5002959;28;20763;-64
2022/04/01 11:22:40;;;;;;;1.10;1.10;;;21.60;47.10;;;;;;5010243;28;20579;-63
2022/04/01 11:25:32;;;;;;;0.90;0.90;;;21.70;67.80;;;;;;5002018;28;20521;-64
2022/04/01 11:27:58;;;;;;;1.20;1.10;;;;;;;;;;5006253;28;20539;-64
2022/04/01 11:30:27;;;;;;;1.20;1.20;;;21.70;53.60;;;;;;5008685;28;20507;-65
2022/04/01 11:33:21;;;;;;;0.93;0.93;;;21.50;49.10;;;;;;5009252;28;20428;-68
2022/04/01 11:35:50;;;;;;;1.00;1.00;;;20.20;48.50;;;;;;5008737;28;20555;-65
2022/04/01 11:38:18;;;;;;;1.37;0.90;;;21.30;67.40;;;;;;5009819;28;20475;-64
2022/04/01 11:40:47;;;;;;;1.00;1.00;;;21.60;67.70;;;;;;5010095;28;20416;-65
2022/04/01 11:43:20;;;;;;;1.17;1.07;;;21.40;69.70;;;;;;5003856;28;20436;-63
2022/04/01 11:45:59;;;;;;;0.93;0.93;;;21.60;48.80;;;;;;5004387;28;20452;-64
2022/04/01 11:48:27;;;;;;;1.10;1.10;;;21.50;67.50;;;;;;5007916;28;20471;-62
2022/04/01 11:50:59;;;;;;;1.63;1.10;;;21.60;51.30;;;;;;5009729;28;20768;-64
2022/04/01 11:53:32;;;;;;;1.23;1.23;;;21.60;47.10;;;;;;5009354;28;20865;-65
2022/04/01 11:56:01;;;;;;;1.47;1.20;;;20.50;52.10;;;;;;5006004;28;20973;-61
2022/04/01 11:58:34;;;;;;;2.80;1.27;;;21.50;58.70;;;;;;5006493;28;20457;-63
2022/04/01 12:01:00;;;;;;;1.63;1.53;;;21.60;68.10;;;;;;5009586;28;20505;-65
2022/04/01 12:03:26;;;;;;;1.77;1.77;;;21.60;68.00;;;;;;5011260;28;20424;-63
2022/04/01 12:08:41;;;;;;;0.90;0.90;;;21.50;49.00;;;;;;5015778;28;20185;-64
2022/04/01 12:08:43;;;;;;;1.00;1.00;;;21.40;61.60;;;;;;5021581;28;20676;-63
2022/04/01 12:11:09;;;;;;;0.93;0.93;;;21.60;68.80;;;;;;5018702;28;20427;-64
2022/04/01 12:13:35;;;;;;;0.90;0.90;;;;;;;;;;5013932;28;20420;-63
2022/04/01 12:16:01;;;;;;;1.20;1.20;;;;;;;;;;5008954;28;20491;-63
2022/04/01 12:18:29;;;;;;;0.93;0.93;;;21.50;48.70;;;;;;5008464;28;20928;-64
2022/04/01 12:21:01;;;;;;;0.83;0.83;;;22.00;47.00;;;;;;5009374;28;20440;-63
2022/04/01 12:23:33;;;;;;;0.83;0.83;;;21.70;71.90;;;;;;5006394;28;20758;-62
2022/04/01 12:26:00;;;;;;;0.90;0.80;;;21.50;48.60;;;;;;4989508;28;20416;-63
2022/04/01 12:28:40;;;;;;;1.00;1.00;;;21.50;46.60;;;;;;5005096;28;20447;-63
2022/04/01 12:31:22;;;;;;;1.50;1.50;;;21.50;48.80;;;;;;5005192;28;20534;-64
2022/04/01 12:33:50;;;;;;;1.17;1.07;;;21.20;48.20;;;;;;5009086;28;20549;-63
2022/04/01 12:36:27;;;;;;;0.90;0.83;;;21.50;48.30;;;;;;5007430;28;20563;-64
2022/04/01 12:39:06;;;;;;;0.90;0.90;;;21.60;55.50;;;;;;5008946;28;20427;-64
2022/04/01 12:41:32;;;;;;;1.13;1.13;;;21.70;50.30;;;;;;5008480;28;20424;-63
2022/04/01 12:44:00;;;;;;;1.47;1.37;;;21.70;63.80;;;;;;5007894;28;20424;-64
2022/04/01 12:46:34;;;;;;;1.10;1.10;;;21.90;59.80;;;;;;5008128;28;20420;-63
2022/04/01 12:49:20;;;;;;;1.10;1.10;;;21.60;62.00;;;;;;5008842;28;20905;-63
2022/04/01 12:52:04;;;;;;;0.80;0.80;;;21.60;70.00;;;;;;5007226;28;20432;-63
2022/04/01 12:54:39;;;;;;;0.87;0.87;;;21.70;46.70;;;;;;5006709;28;20436;-63
2022/04/01 12:57:07;;;;;;;0.93;0.93;;;21.50;48.30;;;;;;5008256;28;20580;-63
2022/04/01 12:59:38;;;;;;;1.33;1.07;;;21.50;48.60;;;;;;5008345;28;20459;-63
2022/04/01 13:02:14;;;;;;;0.97;0.97;;;21.70;55.70;;;;;;5008551;28;20415;-63
2022/04/01 13:04:40;;;;;;;0.90;0.90;;;;;;;;;;5004397;28;20447;-63
2022/04/01 13:07:09;;;;;;;1.17;1.17;;;21.50;48.60;;;;;;5006430;28;20523;-63
2022/04/01 13:09:51;;;;;;;1.30;1.20;;;21.60;70.40;;;;;;5005021;28;20455;-63
2022/04/01 13:12:20;;;;;;;1.23;1.13;;;21.70;51.70;;;;;;5007138;28;20498;-63
2022/04/01 13:14:59;;;;;;;1.27;1.17;;;21.60;48.50;;;;;;5007502;28;20459;-63
2022/04/01 13:17:25;;;;;;;1.40;1.30;;;21.70;54.60;;;;;;5007723;28;20463;-64
2022/04/01 13:19:51;;;;;;;1.67;1.20;;;;;;;;;;5006794;28;20424;-65
2022/04/01 13:22:17;;;;;;;1.10;1.10;;;;;;;;;;5007409;28;21010;-65
2022/04/01 13:24:46;;;;;;;5.50;1.20;;;21.50;48.50;;;;;;5007967;28;20420;-64
2022/04/01 13:27:22;;;;;;;1.23;1.10;;;21.50;48.70;;;;;;5007551;28;20456;-63
